Denver, CO (80222)

12:20 AM MST on February 06, 2016 (GMT -0700)
Krisana Park | | Change Station
CLOSE
Current Station
Personal Weather Station
Location: Denver, CO
Elevation: 5411 ft
Nearby Weather Stations

Elev 5411 ft 39.69 °N, 104.93 °W | Updated 20 minutes ago

Clear
Clear
16.1 °F
Feels Like 16 °F
N
0.0
Wind Variable Wind from North
Gusts 0.0 mph

Today
High -- | Low -- °F
--% Chance of Precip.
Yesterday
High -- | Low -- °F
Precip. -- in
Pressure 30.38 in
Visibility 10.0 miles
Clouds Clear
Windchill 16 °F
Dew Point 8 °F
Humidity 70%
Rainfall in
Snow Depth Not available.
7:03 AM 5:25 PM
Waning Crescent, 7% visible
METAR KAPA 060653Z 20006KT 10SM CLR M07/M16 A3024 RMK AO2 SLP285 T10721156 400171100
Pressure 30.38 in
Visibility 10.0 miles
Clouds Clear
Windchill 16 °F
Dew Point 8 °F
Humidity 70%
Rainfall in
Snow Depth Not available.
7:03 AM 5:25 PM
Waning Crescent, 7% visible
METAR KAPA 060653Z 20006KT 10SM CLR M07/M16 A3024 RMK AO2 SLP285 T10721156 400171100

10-Day Weather Forecast

Almanac

Astronomy

Feb. 06, 2016 Rise Set
Actual Time
Civil Twilight
Nautical Twilight
Astronomical Twilight
Moon
Length of Visible Light
Length of Day
Tomorrow will be .
, % of the Moon is Illuminated

Today's Extremes

State Highs State Lows

Community

WunderPhotos

Upload Photos

1,890,932 photos uploaded!

WunderBlog® & News

Nearby

Air Quality

  Air Quality AQ Index Pollutant
Not available.

Snow Depth

Station Depth Elevation

Earthquake Activity

City Distance Mag. Time & Date
Minimum magnitude displayed is 2.5.

Coastal Water Temperatures

Place Temperature

Stations

Nearby Weather Stations

Station Location Temp. Windchill Dew Point Humidity Wind Precip. Elev Updated Type
                   

Watches & Warnings

There are currently no watches in effect.